createdAt,value
2022-10-26T00:01:23.404Z,74.21
2022-10-26T00:03:51.872Z,74.30
2022-10-26T00:06:24.998Z,74.24
2022-10-26T00:08:56.590Z,74.23
2022-10-26T00:11:25.626Z,74.30
2022-10-26T00:13:53.405Z,74.40
2022-10-26T00:16:26.930Z,74.40
2022-10-26T00:18:55.034Z,74.38
2022-10-26T00:21:22.840Z,74.44
2022-10-26T00:23:50.508Z,74.40
2022-10-26T00:26:19.802Z,74.54
2022-10-26T00:28:47.681Z,74.40
2022-10-26T00:31:17.793Z,74.42
2022-10-26T00:33:46.768Z,74.47
2022-10-26T00:36:17.700Z,74.52
2022-10-26T00:38:56.151Z,74.50
2022-10-26T00:41:29.902Z,74.45
2022-10-26T00:43:58.458Z,74.47
2022-10-26T00:46:44.296Z,74.51
2022-10-26T00:49:21.582Z,74.55
2022-10-26T00:51:53.632Z,74.61
2022-10-26T00:54:22.882Z,74.65
2022-10-26T00:56:54.661Z,74.53
2022-10-26T00:59:24.346Z,74.56
2022-10-26T01:01:53.686Z,74.61
2022-10-26T01:04:22.784Z,74.64
2022-10-26T01:06:52.453Z,74.69
2022-10-26T01:09:21.870Z,74.65
2022-10-26T01:11:49.505Z,74.68
2022-10-26T01:14:20.034Z,74.65
2022-10-26T01:17:12.001Z,74.78
2022-10-26T01:20:27.760Z,74.71
2022-10-26T01:23:06.644Z,74.79
2022-10-26T01:26:04.536Z,74.84
2022-10-26T01:28:59.466Z,74.78
2022-10-26T01:31:40.241Z,74.84
2022-10-26T01:34:38.813Z,74.70
2022-10-26T01:37:15.591Z,74.88
2022-10-26T01:39:53.691Z,74.77
2022-10-26T01:42:24.513Z,74.79
2022-10-26T01:45:02.223Z,74.75
2022-10-26T01:47:35.135Z,74.85
2022-10-26T01:50:05.884Z,74.83
2022-10-26T01:52:34.863Z,74.95
2022-10-26T01:55:27.093Z,74.91
2022-10-26T01:58:07.025Z,74.86
2022-10-26T02:00:45.314Z,74.89
2022-10-26T02:03:30.547Z,74.98
2022-10-26T02:06:15.978Z,74.93
2022-10-26T02:09:12.282Z,74.95
2022-10-26T02:11:46.871Z,75.02
2022-10-26T02:14:42.267Z,75.10
2022-10-26T02:17:29.801Z,75.04
2022-10-26T02:20:07.702Z,75.07
2022-10-26T02:22:41.428Z,75.04
2022-10-26T02:25:16.915Z,75.07
2022-10-26T02:27:54.448Z,75.07
2022-10-26T02:30:23.051Z,75.20
2022-10-26T02:32:55.297Z,75.04
2022-10-26T02:35:30.985Z,75.04
2022-10-26T02:38:04.734Z,75.19
2022-10-26T02:40:34.758Z,75.18
2022-10-26T02:43:08.733Z,75.20
2022-10-26T02:45:47.550Z,75.18
2022-10-26T02:48:16.452Z,75.23
2022-10-26T02:51:07.412Z,75.24
2022-10-26T02:54:08.584Z,75.23
2022-10-26T02:56:48.586Z,75.25
2022-10-26T02:59:19.610Z,75.25
2022-10-26T03:01:48.538Z,75.25
2022-10-26T03:04:16.338Z,75.32
2022-10-26T03:06:54.493Z,75.35
2022-10-26T03:09:24.871Z,75.38
2022-10-26T03:11:54.335Z,75.32
2022-10-26T03:14:22.119Z,75.39
2022-10-26T03:19:22.612Z,75.37
2022-10-26T03:21:50.271Z,75.40
2022-10-26T03:24:17.931Z,75.33
2022-10-26T03:26:47.359Z,75.41
2022-10-26T03:29:15.110Z,75.33
2022-10-26T03:31:42.910Z,75.30
2022-10-26T03:34:10.538Z,75.35
2022-10-26T03:36:41.003Z,75.49
2022-10-26T03:39:09.759Z,75.53
2022-10-26T03:41:37.452Z,75.43
2022-10-26T03:44:07.136Z,75.54
2022-10-26T03:46:34.734Z,75.58
2022-10-26T03:49:02.378Z,75.50
2022-10-26T03:51:30.294Z,75.49
2022-10-26T03:53:57.938Z,75.45
2022-10-26T03:56:27.004Z,75.49
2022-10-26T03:58:56.966Z,75.53
2022-10-26T04:01:26.916Z,75.43
2022-10-26T04:03:54.725Z,75.47
2022-10-26T04:06:24.457Z,75.43
2022-10-26T04:08:54.603Z,75.56
2022-10-26T04:11:22.212Z,75.44
2022-10-26T04:13:49.906Z,75.60
2022-10-26T04:16:17.530Z,75.59
2022-10-26T04:18:47.234Z,75.56
2022-10-26T04:21:17.198Z,75.50
2022-10-26T04:23:45.548Z,75.54
2022-10-26T04:26:14.367Z,75.54
2022-10-26T04:28:42.024Z,75.45
2022-10-26T04:31:09.688Z,75.58
2022-10-26T04:33:37.395Z,75.55
2022-10-26T04:36:05.415Z,75.52
2022-10-26T04:38:35.362Z,75.58
2022-10-26T04:41:03.150Z,75.58
2022-10-26T04:43:30.800Z,75.53
2022-10-26T04:45:59.075Z,75.51
2022-10-26T04:48:27.037Z,75.68
2022-10-26T04:50:54.940Z,75.62
2022-10-26T04:53:22.602Z,75.67
2022-10-26T04:55:50.248Z,75.67
2022-10-26T04:58:18.134Z,75.68
2022-10-26T05:00:45.841Z,75.72
2022-10-26T05:03:13.730Z,75.74
2022-10-26T05:05:41.477Z,75.72
2022-10-26T05:08:09.346Z,75.71
2022-10-26T05:10:37.140Z,75.74
2022-10-26T05:13:04.958Z,75.72
2022-10-26T05:15:32.690Z,75.75
2022-10-26T05:18:04.094Z,75.72
2022-10-26T05:20:35.071Z,75.69
2022-10-26T05:23:08.756Z,75.79
2022-10-26T05:25:39.546Z,75.74
2022-10-26T05:28:11.814Z,75.68
2022-10-26T05:30:42.476Z,75.78
2022-10-26T05:33:14.279Z,75.64
2022-10-26T05:35:44.155Z,75.74
2022-10-26T05:38:18.255Z,75.77
2022-10-26T05:40:54.212Z,75.69
2022-10-26T05:43:24.356Z,75.74
2022-10-26T05:45:52.089Z,75.68
2022-10-26T05:48:22.764Z,75.87
2022-10-26T05:50:50.500Z,75.80
2022-10-26T05:53:18.332Z,75.64
2022-10-26T05:55:48.058Z,75.79
2022-10-26T05:58:18.173Z,75.72
2022-10-26T06:01:09.528Z,75.86
2022-10-26T06:04:08.234Z,75.76
2022-10-26T06:06:47.206Z,75.81
2022-10-26T06:09:15.304Z,75.76
2022-10-26T06:11:45.086Z,75.79
2022-10-26T06:14:13.138Z,75.78
2022-10-26T06:17:03.438Z,75.74
2022-10-26T06:19:37.644Z,75.69
2022-10-26T06:22:43.321Z,75.81
2022-10-26T06:25:32.555Z,75.78
2022-10-26T06:28:38.772Z,75.77
2022-10-26T06:31:08.703Z,75.73
2022-10-26T06:33:38.450Z,75.90
2022-10-26T06:36:23.780Z,75.97
2022-10-26T06:38:59.863Z,75.97
2022-10-26T06:41:34.451Z,75.90
2022-10-26T06:44:05.308Z,75.90
2022-10-26T06:46:53.397Z,75.77
2022-10-26T06:49:34.162Z,75.82
2022-10-26T06:52:13.623Z,75.80
2022-10-26T06:54:47.354Z,75.88
2022-10-26T06:57:23.560Z,75.92
2022-10-26T07:00:02.170Z,75.85
2022-10-26T07:02:32.923Z,75.94
2022-10-26T07:05:03.633Z,75.92
2022-10-26T07:07:33.603Z,75.85
2022-10-26T07:10:03.595Z,75.89
2022-10-26T07:12:33.277Z,75.90
2022-10-26T07:15:05.965Z,75.88
2022-10-26T07:17:43.970Z,75.82
2022-10-26T07:20:14.087Z,75.82
2022-10-26T07:22:44.436Z,75.84
2022-10-26T07:25:13.872Z,75.78
2022-10-26T07:27:41.536Z,75.78
2022-10-26T07:30:11.536Z,75.73
2022-10-26T07:32:41.020Z,75.64
2022-10-26T07:35:08.902Z,75.73
2022-10-26T07:37:36.720Z,75.69
2022-10-26T07:40:07.120Z,75.68
2022-10-26T07:42:41.018Z,75.61
2022-10-26T07:45:10.999Z,75.49
2022-10-26T07:47:38.774Z,75.50
2022-10-26T07:50:08.716Z,75.53
2022-10-26T07:52:38.802Z,75.50
2022-10-26T07:55:10.317Z,75.51
2022-10-26T07:57:40.158Z,75.56
2022-10-26T08:00:11.238Z,75.55
2022-10-26T08:02:39.001Z,75.57
2022-10-26T08:05:06.950Z,75.58
2022-10-26T08:07:43.449Z,75.52
2022-10-26T08:10:13.848Z,75.50
2022-10-26T08:12:44.164Z,75.64
2022-10-26T08:15:12.018Z,75.63
2022-10-26T08:17:41.486Z,75.56
2022-10-26T08:20:11.506Z,75.64
2022-10-26T08:22:39.312Z,75.53
2022-10-26T08:25:07.244Z,75.57
2022-10-26T08:27:36.760Z,75.66
2022-10-26T08:30:04.855Z,75.58
2022-10-26T08:32:34.340Z,75.66
2022-10-26T08:35:01.967Z,75.64
2022-10-26T08:37:31.593Z,75.55
2022-10-26T08:40:00.707Z,75.56
2022-10-26T08:42:40.464Z,75.49
2022-10-26T08:45:36.862Z,75.37
2022-10-26T08:48:17.353Z,75.27
2022-10-26T08:50:57.816Z,75.14
2022-10-26T08:53:38.631Z,75.18
2022-10-26T08:56:20.482Z,75.20
2022-10-26T08:59:20.568Z,75.23
2022-10-26T09:01:50.936Z,75.00
2022-10-26T09:04:28.896Z,74.60
2022-10-26T09:07:25.032Z,74.83
2022-10-26T09:10:14.720Z,74.92
2022-10-26T09:13:03.029Z,74.30
2022-10-26T09:16:03.014Z,73.86
2022-10-26T09:18:49.297Z,73.59
2022-10-26T09:21:42.416Z,73.61
2022-10-26T09:24:24.839Z,73.49
2022-10-26T09:27:00.099Z,73.64
2022-10-26T09:29:35.350Z,73.88
2022-10-26T09:32:16.147Z,73.50
2022-10-26T09:34:55.377Z,73.09
2022-10-26T09:37:37.010Z,72.83
2022-10-26T09:40:20.081Z,72.63
2022-10-26T09:43:06.010Z,72.92
2022-10-26T09:45:39.348Z,72.48
2022-10-26T09:48:47.559Z,72.41
2022-10-26T09:51:19.915Z,72.03
2022-10-26T09:53:50.143Z,72.28
2022-10-26T09:56:19.748Z,71.49
2022-10-26T09:59:05.724Z,70.60
2022-10-26T10:01:41.396Z,70.90
2022-10-26T10:04:14.426Z,71.13
2022-10-26T10:06:45.469Z,71.26
2022-10-26T10:09:24.795Z,71.22
2022-10-26T10:11:58.036Z,71.34
2022-10-26T10:14:28.223Z,71.08
2022-10-26T10:17:00.442Z,70.21
2022-10-26T10:19:31.658Z,70.41
2022-10-26T10:22:09.855Z,70.55
2022-10-26T10:24:43.308Z,70.13
2022-10-26T10:27:16.941Z,70.07
2022-10-26T10:29:52.039Z,70.14
2022-10-26T10:32:24.110Z,70.05
2022-10-26T10:34:57.020Z,70.32
2022-10-26T10:37:30.694Z,70.18
2022-10-26T10:40:06.999Z,69.88
2022-10-26T10:42:41.723Z,69.77
2022-10-26T10:45:22.035Z,69.50
2022-10-26T10:48:06.713Z,69.30
2022-10-26T10:50:36.620Z,68.77
2022-10-26T10:53:24.542Z,68.53
2022-10-26T10:56:21.804Z,68.44
2022-10-26T10:59:26.386Z,68.74
2022-10-26T11:02:36.281Z,68.72
2022-10-26T11:05:09.991Z,68.63
2022-10-26T11:07:52.619Z,68.46
2022-10-26T11:10:26.895Z,67.96
2022-10-26T11:13:03.197Z,67.70
2022-10-26T11:15:38.874Z,67.34
2022-10-26T11:18:18.251Z,67.61
2022-10-26T11:20:54.488Z,67.69
2022-10-26T11:23:51.255Z,67.45
2022-10-26T11:26:35.942Z,67.41
2022-10-26T11:29:18.806Z,67.29
2022-10-26T11:31:56.032Z,67.03
2022-10-26T11:34:35.434Z,66.96
2022-10-26T11:37:38.458Z,66.94
2022-10-26T11:40:30.085Z,67.07
2022-10-26T11:43:20.620Z,67.00
2022-10-26T11:46:15.273Z,66.95
2022-10-26T11:49:00.595Z,66.72
2022-10-26T11:51:54.373Z,66.87
2022-10-26T11:54:52.299Z,66.57
2022-10-26T11:57:24.347Z,66.47
2022-10-26T12:00:08.057Z,66.45
2022-10-26T12:02:59.803Z,65.79
2022-10-26T12:05:34.350Z,66.01
2022-10-26T12:08:16.449Z,66.08
2022-10-26T12:10:50.692Z,65.74
2022-10-26T12:13:32.092Z,65.63
2022-10-26T12:16:15.061Z,65.65
2022-10-26T12:19:05.534Z,65.60
2022-10-26T12:21:35.516Z,65.45
2022-10-26T12:24:25.341Z,65.51
2022-10-26T12:26:58.672Z,65.33
2022-10-26T12:29:30.381Z,65.29
2022-10-26T12:31:59.914Z,65.18
2022-10-26T12:34:30.445Z,65.09
2022-10-26T12:36:58.148Z,65.18
2022-10-26T12:39:37.790Z,65.26
2022-10-26T12:42:10.251Z,65.16
2022-10-26T12:44:50.279Z,65.13
2022-10-26T12:47:30.289Z,64.95
2022-10-26T12:50:05.903Z,64.74
2022-10-26T12:52:49.066Z,64.66
2022-10-26T12:55:48.193Z,64.52
2022-10-26T12:59:04.337Z,64.64
2022-10-26T13:01:40.724Z,64.63
2022-10-26T13:04:33.152Z,64.67
2022-10-26T13:07:23.625Z,64.64
2022-10-26T13:10:03.480Z,64.38
2022-10-26T13:12:54.483Z,64.29
2022-10-26T13:15:27.994Z,64.64
2022-10-26T13:18:20.473Z,64.28
2022-10-26T13:21:15.122Z,64.37
2022-10-26T13:23:47.841Z,64.14
2022-10-26T13:26:19.690Z,64.17
2022-10-26T13:28:57.310Z,64.03
2022-10-26T13:31:36.119Z,63.83
2022-10-26T13:34:12.678Z,63.84
2022-10-26T13:37:13.580Z,63.78
2022-10-26T13:39:49.572Z,63.20
2022-10-26T13:42:27.152Z,63.50
2022-10-26T13:45:07.349Z,63.55
2022-10-26T13:47:53.698Z,63.58
2022-10-26T13:50:30.019Z,63.66
2022-10-26T13:53:12.303Z,63.67
2022-10-26T13:55:55.062Z,63.51
2022-10-26T13:58:34.736Z,63.10
2022-10-26T14:01:14.959Z,63.08
2022-10-26T14:03:45.165Z,63.23
2022-10-26T14:06:33.964Z,63.11
2022-10-26T14:09:15.942Z,63.01
2022-10-26T14:11:53.474Z,62.98
2022-10-26T14:14:37.161Z,63.00
2022-10-26T14:17:09.999Z,63.14
2022-10-26T14:19:41.669Z,62.97
2022-10-26T14:22:23.127Z,62.86
2022-10-26T14:27:40.723Z,62.87
2022-10-26T14:30:29.529Z,62.93
2022-10-26T14:32:59.736Z,62.84
2022-10-26T14:35:37.717Z,62.80
2022-10-26T14:38:27.107Z,62.61
2022-10-26T14:40:59.172Z,62.56
2022-10-26T14:43:27.532Z,62.47
2022-10-26T14:45:57.096Z,62.47
2022-10-26T14:48:34.000Z,62.57
2022-10-26T14:51:16.264Z,62.42
2022-10-26T14:53:53.169Z,62.42
2022-10-26T14:56:41.876Z,62.29
2022-10-26T14:59:19.495Z,62.07
2022-10-26T15:02:00.608Z,62.16
2022-10-26T15:04:38.787Z,62.04
2022-10-26T15:07:12.567Z,62.09
2022-10-26T15:09:46.867Z,61.93
2022-10-26T15:12:34.867Z,62.05
2022-10-26T15:15:15.141Z,62.11
2022-10-26T15:17:56.710Z,62.06
2022-10-26T15:20:28.957Z,62.13
2022-10-26T15:23:01.873Z,62.10
2022-10-26T15:25:36.036Z,62.02
2022-10-26T15:28:32.873Z,61.95
2022-10-26T15:31:15.480Z,62.02
2022-10-26T15:33:52.385Z,61.95
2022-10-26T15:36:23.869Z,61.95
2022-10-26T15:38:57.530Z,62.01
2022-10-26T15:41:42.943Z,62.00
2022-10-26T15:44:19.340Z,62.01
2022-10-26T15:46:49.829Z,61.97
2022-10-26T15:49:21.390Z,61.84
2022-10-26T15:51:49.292Z,62.04
2022-10-26T15:54:19.662Z,61.91
2022-10-26T15:56:49.788Z,61.92
2022-10-26T15:59:20.630Z,61.95
2022-10-26T16:01:48.463Z,62.01
2022-10-26T16:04:20.182Z,62.02
2022-10-26T16:06:47.881Z,61.93
2022-10-26T16:09:18.936Z,61.94
2022-10-26T16:11:46.717Z,61.97
2022-10-26T16:14:14.362Z,61.96
2022-10-26T16:16:42.026Z,62.02
2022-10-26T16:19:29.956Z,62.07
2022-10-26T16:22:02.479Z,62.05
2022-10-26T16:24:33.053Z,62.06
2022-10-26T16:27:00.754Z,62.07
2022-10-26T16:29:28.517Z,62.05
2022-10-26T16:31:56.189Z,62.07
2022-10-26T16:34:23.878Z,62.22
2022-10-26T16:36:51.575Z,62.23
2022-10-26T16:39:20.047Z,62.27
2022-10-26T16:41:51.342Z,62.24
2022-10-26T16:44:19.006Z,62.31
2022-10-26T16:46:46.697Z,62.28
2022-10-26T16:49:14.376Z,62.46
2022-10-26T16:51:42.079Z,62.37
2022-10-26T16:54:09.770Z,62.31
2022-10-26T16:56:39.512Z,62.44
2022-10-26T16:59:10.966Z,62.56
2022-10-26T17:01:38.676Z,62.67
2022-10-26T17:04:11.251Z,62.64
2022-10-26T17:06:38.882Z,62.81
2022-10-26T17:09:06.659Z,62.78
2022-10-26T17:11:34.387Z,62.78
2022-10-26T17:14:02.244Z,62.87
2022-10-26T17:16:30.055Z,62.87
2022-10-26T17:18:57.730Z,62.92
2022-10-26T17:21:33.090Z,63.08
2022-10-26T17:24:03.628Z,63.17
2022-10-26T17:26:31.314Z,63.12
2022-10-26T17:29:01.272Z,63.08
2022-10-26T17:31:32.974Z,63.23
2022-10-26T17:34:00.807Z,63.21
2022-10-26T17:36:28.644Z,63.22
2022-10-26T17:38:59.476Z,63.33
2022-10-26T17:41:28.346Z,63.37
2022-10-26T17:43:56.195Z,63.48
2022-10-26T17:46:27.267Z,63.44
2022-10-26T17:48:58.605Z,63.64
2022-10-26T17:51:29.365Z,63.64
2022-10-26T17:53:59.294Z,63.74
2022-10-26T17:56:29.946Z,63.76
2022-10-26T17:59:05.589Z,63.79
2022-10-26T18:01:33.649Z,63.85
2022-10-26T18:04:03.856Z,63.82
2022-10-26T18:06:31.663Z,63.97
2022-10-26T18:09:01.593Z,64.18
2022-10-26T18:13:58.902Z,64.09
2022-10-26T18:16:28.918Z,64.18
2022-10-26T18:19:04.798Z,64.36
2022-10-26T18:21:39.189Z,64.40
2022-10-26T18:24:12.657Z,64.64
2022-10-26T18:26:40.348Z,64.44
2022-10-26T18:29:13.424Z,64.58
2022-10-26T18:31:41.379Z,64.63
2022-10-26T18:34:11.293Z,64.62
2022-10-26T18:36:39.001Z,64.70
2022-10-26T18:39:08.938Z,64.68
2022-10-26T18:41:36.677Z,64.67
2022-10-26T18:44:04.641Z,64.86
2022-10-26T18:46:42.668Z,64.85
2022-10-26T18:49:14.076Z,64.83
2022-10-26T18:51:41.950Z,64.84
2022-10-26T18:54:10.102Z,64.91
2022-10-26T18:56:38.289Z,64.98
2022-10-26T18:59:09.215Z,65.04
2022-10-26T19:01:42.077Z,65.07
2022-10-26T19:04:12.740Z,65.19
2022-10-26T19:06:47.654Z,65.21
2022-10-26T19:09:20.475Z,65.16
2022-10-26T19:11:48.274Z,65.27
2022-10-26T19:14:18.871Z,65.17
2022-10-26T19:16:52.598Z,65.42
2022-10-26T19:19:25.379Z,65.37
2022-10-26T19:21:53.865Z,65.52
2022-10-26T19:24:25.200Z,65.62
2022-10-26T19:26:59.858Z,65.67
2022-10-26T19:29:27.584Z,65.64
2022-10-26T19:31:55.467Z,65.70
2022-10-26T19:34:26.500Z,65.79
2022-10-26T19:36:54.218Z,65.70
2022-10-26T19:39:27.182Z,65.84
2022-10-26T19:41:54.877Z,65.92
2022-10-26T19:44:25.464Z,65.97
2022-10-26T19:46:54.240Z,66.07
2022-10-26T19:49:22.050Z,65.98
2022-10-26T19:51:49.671Z,66.07
2022-10-26T19:54:20.373Z,66.09
2022-10-26T19:56:48.069Z,66.23
2022-10-26T19:59:15.884Z,66.17
2022-10-26T20:01:43.610Z,66.41
2022-10-26T20:04:11.532Z,66.32
2022-10-26T20:06:44.329Z,66.46
2022-10-26T20:09:12.050Z,66.56
2022-10-26T20:11:45.548Z,66.53
2022-10-26T20:14:17.279Z,66.48
2022-10-26T20:16:45.073Z,66.73
2022-10-26T20:19:12.876Z,66.62
2022-10-26T20:21:40.558Z,66.60
2022-10-26T20:24:10.230Z,66.64
2022-10-26T20:26:40.109Z,66.69
2022-10-26T20:29:07.917Z,66.54
2022-10-26T20:31:38.633Z,66.61
2022-10-26T20:34:06.292Z,66.49
2022-10-26T20:36:34.074Z,66.52
2022-10-26T20:39:07.531Z,66.74
2022-10-26T20:41:45.968Z,66.78
2022-10-26T20:44:23.284Z,67.06
2022-10-26T20:46:52.607Z,67.14
2022-10-26T20:49:20.586Z,67.23
2022-10-26T20:52:19.362Z,67.21
2022-10-26T20:55:02.652Z,67.19
2022-10-26T20:57:33.220Z,67.27
2022-10-26T21:00:10.659Z,67.32
2022-10-26T21:02:38.763Z,67.46
2022-10-26T21:05:06.940Z,67.55
2022-10-26T21:07:34.760Z,67.67
2022-10-26T21:10:02.426Z,67.69
2022-10-26T21:12:30.124Z,67.75
2022-10-26T21:15:01.023Z,67.74
2022-10-26T21:17:28.706Z,67.75
2022-10-26T21:19:56.649Z,67.75
2022-10-26T21:22:28.006Z,67.96
2022-10-26T21:24:55.647Z,68.09
2022-10-26T21:27:26.286Z,67.80
2022-10-26T21:29:53.935Z,67.87
2022-10-26T21:32:21.577Z,67.85
2022-10-26T21:34:49.276Z,67.96
2022-10-26T21:37:17.042Z,67.92
2022-10-26T21:39:44.718Z,68.12
2022-10-26T21:42:15.309Z,68.11
2022-10-26T21:44:42.967Z,67.98
2022-10-26T21:47:13.797Z,68.07
2022-10-26T21:52:14.385Z,68.10
2022-10-26T21:54:42.772Z,68.16
2022-10-26T21:57:10.408Z,68.27
2022-10-26T21:59:38.094Z,68.44
2022-10-26T22:02:08.208Z,68.48
2022-10-26T22:04:38.927Z,68.65
2022-10-26T22:07:06.634Z,68.53
2022-10-26T22:09:40.644Z,68.39
2022-10-26T22:12:20.080Z,68.63
2022-10-26T22:14:47.712Z,68.97
2022-10-26T22:17:15.388Z,69.03
2022-10-26T22:19:43.032Z,69.20
2022-10-26T22:22:10.711Z,69.08
2022-10-26T22:24:38.369Z,69.22
2022-10-26T22:27:06.014Z,69.17
2022-10-26T22:29:36.202Z,69.26
2022-10-26T22:32:07.047Z,69.39
2022-10-26T22:34:34.777Z,69.35
2022-10-26T22:37:02.478Z,69.43
2022-10-26T22:39:30.157Z,69.41
2022-10-26T22:41:58.543Z,69.48
2022-10-26T22:44:26.243Z,69.54
2022-10-26T22:46:53.881Z,69.58
2022-10-26T22:49:21.679Z,69.67
2022-10-26T22:51:49.339Z,69.62
2022-10-26T22:54:17.147Z,69.68
2022-10-26T22:56:44.789Z,69.76
2022-10-26T22:59:12.449Z,69.83
2022-10-26T23:01:41.985Z,69.82
2022-10-26T23:04:13.390Z,69.83
2022-10-26T23:06:41.278Z,69.87
2022-10-26T23:09:08.936Z,70.01
2022-10-26T23:11:36.705Z,70.05
2022-10-26T23:14:07.388Z,70.08
2022-10-26T23:16:35.099Z,70.13
2022-10-26T23:19:03.178Z,70.18
2022-10-26T23:21:30.923Z,70.17
2022-10-26T23:23:58.761Z,70.09
2022-10-26T23:26:33.618Z,70.24
2022-10-26T23:29:04.230Z,70.28
2022-10-26T23:31:31.885Z,70.44
2022-10-26T23:34:02.932Z,70.37
2022-10-26T23:36:30.623Z,70.36
2022-10-26T23:38:58.366Z,70.35
2022-10-26T23:41:26.126Z,70.37
2022-10-26T23:43:53.729Z,70.52
2022-10-26T23:46:21.574Z,70.58
2022-10-26T23:48:49.266Z,70.59
2022-10-26T23:51:16.943Z,70.55
2022-10-26T23:53:45.136Z,70.60
2022-10-26T23:56:12.820Z,70.61
2022-10-26T23:58:41.372Z,70.77
